createdAt,value
2022-11-16T00:02:07.108Z,30.90
2022-11-16T00:04:33.683Z,29.10
2022-11-16T00:07:02.666Z,30.85
2022-11-16T00:09:31.912Z,27.35
2022-11-16T00:12:09.580Z,26.00
2022-11-16T00:14:36.442Z,26.60
2022-11-16T00:17:04.225Z,30.02
2022-11-16T00:19:30.980Z,29.25
2022-11-16T00:21:57.736Z,29.48
2022-11-16T00:24:24.391Z,27.85
2022-11-16T00:26:54.074Z,26.35
2022-11-16T00:29:23.464Z,27.20
2022-11-16T00:31:50.391Z,29.33
2022-11-16T00:34:17.345Z,26.45
2022-11-16T00:36:44.284Z,25.65
2022-11-16T00:39:15.724Z,28.70
2022-11-16T00:44:10.251Z,29.42
2022-11-16T00:46:37.383Z,27.95
2022-11-16T00:49:05.513Z,25.33
2022-11-16T00:51:33.757Z,27.88
2022-11-16T00:54:00.901Z,27.48
2022-11-16T00:56:27.518Z,24.27
2022-11-16T00:58:54.047Z,24.75
2022-11-16T01:01:20.562Z,24.20
2022-11-16T01:03:47.928Z,23.55
2022-11-16T01:06:15.956Z,22.23
2022-11-16T01:08:44.254Z,20.98
2022-11-16T01:11:32.473Z,19.38
2022-11-16T01:13:59.026Z,19.75
2022-11-16T01:16:25.484Z,21.83
2022-11-16T01:18:54.175Z,22.65
2022-11-16T01:21:22.432Z,18.70
2022-11-16T01:23:49.278Z,20.45
2022-11-16T01:26:15.941Z,21.55
2022-11-16T01:28:42.472Z,20.52
2022-11-16T01:31:10.313Z,19.52
2022-11-16T01:33:39.649Z,24.38
2022-11-16T01:36:17.258Z,28.42
2022-11-16T01:38:45.643Z,20.98
2022-11-16T01:41:18.061Z,24.80
2022-11-16T01:43:53.658Z,27.02
2022-11-16T01:46:20.285Z,25.67
2022-11-16T01:48:48.856Z,26.30
2022-11-16T01:51:15.705Z,25.25
2022-11-16T01:53:42.289Z,25.40
2022-11-16T01:56:09.276Z,23.58
2022-11-16T01:58:36.490Z,25.85
2022-11-16T02:01:03.772Z,25.88
2022-11-16T02:03:30.263Z,28.80
2022-11-16T02:06:11.878Z,24.33
2022-11-16T02:09:26.263Z,25.10
2022-11-16T02:11:56.463Z,26.33
2022-11-16T02:14:36.680Z,26.92
2022-11-16T02:17:27.684Z,24.27
2022-11-16T02:20:18.905Z,25.80
2022-11-16T02:22:48.369Z,22.52
2022-11-16T02:25:27.611Z,26.63
2022-11-16T02:28:06.040Z,24.60
2022-11-16T02:30:33.056Z,21.80
2022-11-16T02:33:06.077Z,22.88
2022-11-16T02:35:40.509Z,23.30
2022-11-16T02:38:13.451Z,27.20
2022-11-16T02:40:46.281Z,26.42
2022-11-16T02:43:21.087Z,27.90
2022-11-16T02:45:50.880Z,23.23
2022-11-16T02:48:23.493Z,25.70
2022-11-16T02:50:53.351Z,23.85
2022-11-16T02:53:22.035Z,25.80
2022-11-16T02:55:48.472Z,28.33
2022-11-16T02:58:20.110Z,23.77
2022-11-16T03:01:00.033Z,23.17
2022-11-16T03:03:43.591Z,26.13
2022-11-16T03:06:16.506Z,22.70
2022-11-16T03:08:47.916Z,24.38
2022-11-16T03:14:03.719Z,21.92
2022-11-16T03:16:35.276Z,24.23
2022-11-16T03:19:05.599Z,23.25
2022-11-16T03:21:58.110Z,23.27
2022-11-16T03:24:25.218Z,22.00
2022-11-16T03:27:11.227Z,23.00
2022-11-16T03:29:46.929Z,21.15
2022-11-16T03:32:25.286Z,24.70
2022-11-16T03:34:59.877Z,22.95
2022-11-16T03:37:26.916Z,22.95
2022-11-16T03:39:55.768Z,23.30
2022-11-16T03:42:24.588Z,26.63
2022-11-16T03:44:52.418Z,27.05
2022-11-16T03:47:18.972Z,22.85
2022-11-16T03:49:46.613Z,27.90
2022-11-16T03:52:15.338Z,24.20
2022-11-16T03:54:42.622Z,22.58
2022-11-16T03:57:15.423Z,26.65
2022-11-16T03:59:43.253Z,26.80
2022-11-16T04:02:10.145Z,23.85
2022-11-16T04:04:54.877Z,27.88
2022-11-16T04:07:40.018Z,27.20
2022-11-16T04:10:25.342Z,30.90
2022-11-16T04:13:11.210Z,27.98
2022-11-16T04:15:55.917Z,24.58
2022-11-16T04:18:40.720Z,29.23
2022-11-16T04:21:37.569Z,26.08
2022-11-16T04:24:13.200Z,29.75
2022-11-16T04:27:06.939Z,28.15
2022-11-16T04:29:34.478Z,27.00
2022-11-16T04:32:20.061Z,24.38
2022-11-16T04:35:05.437Z,26.13
2022-11-16T04:37:49.727Z,24.67
2022-11-16T04:40:17.115Z,28.30
2022-11-16T04:42:43.626Z,26.73
2022-11-16T04:45:28.955Z,23.02
2022-11-16T04:47:55.410Z,26.63
2022-11-16T04:50:21.892Z,26.88
2022-11-16T04:52:48.358Z,30.30
2022-11-16T04:55:14.853Z,25.92
2022-11-16T04:57:41.345Z,26.65
2022-11-16T05:00:08.695Z,25.15
2022-11-16T05:02:35.288Z,25.38
2022-11-16T05:05:01.840Z,25.55
2022-11-16T05:07:28.379Z,26.13
2022-11-16T05:09:54.866Z,25.40
2022-11-16T05:12:26.728Z,26.95
2022-11-16T05:14:54.942Z,27.60
2022-11-16T05:17:22.705Z,26.75
2022-11-16T05:20:07.837Z,24.48
2022-11-16T05:22:35.232Z,28.83
2022-11-16T05:25:01.952Z,27.02
2022-11-16T05:27:29.496Z,30.98
2022-11-16T05:29:56.558Z,28.63
2022-11-16T05:32:24.551Z,26.95
2022-11-16T05:34:51.095Z,27.52
2022-11-16T05:37:19.094Z,27.20
2022-11-16T05:39:45.591Z,25.95
2022-11-16T05:42:12.024Z,30.17
2022-11-16T05:44:38.491Z,25.90
2022-11-16T05:47:05.704Z,33.08
2022-11-16T05:49:32.164Z,28.13
2022-11-16T05:51:58.719Z,27.58
2022-11-16T05:54:26.136Z,25.65
2022-11-16T05:56:54.030Z,27.65
2022-11-16T05:59:22.647Z,28.25
2022-11-16T06:01:49.931Z,26.58
2022-11-16T06:04:16.476Z,30.05
2022-11-16T06:06:43.208Z,27.83
2022-11-16T06:09:11.442Z,25.27
2022-11-16T06:11:38.369Z,27.52
2022-11-16T06:14:05.651Z,27.05
2022-11-16T06:16:32.172Z,31.30
2022-11-16T06:18:59.773Z,28.65
2022-11-16T06:21:26.334Z,26.77
2022-11-16T06:23:52.856Z,25.10
2022-11-16T06:26:19.322Z,31.23
2022-11-16T06:28:45.813Z,24.50
2022-11-16T06:31:12.290Z,30.95
2022-11-16T06:33:38.730Z,28.65
2022-11-16T06:36:05.503Z,31.88
2022-11-16T06:38:32.215Z,29.25
2022-11-16T06:40:59.176Z,27.85
2022-11-16T06:43:26.198Z,26.70
2022-11-16T06:45:54.856Z,28.92
2022-11-16T06:48:22.376Z,27.98
2022-11-16T06:50:49.915Z,27.17
2022-11-16T06:53:17.345Z,29.02
2022-11-16T06:55:43.943Z,25.55
2022-11-16T06:58:10.480Z,31.90
2022-11-16T07:00:37.016Z,31.55
2022-11-16T07:03:03.835Z,32.05
2022-11-16T07:05:31.374Z,26.90
2022-11-16T07:07:58.324Z,28.35
2022-11-16T07:10:25.515Z,29.73
2022-11-16T07:12:51.970Z,26.33
2022-11-16T07:15:19.361Z,29.38
2022-11-16T07:17:45.973Z,28.25
2022-11-16T07:20:12.543Z,26.13
2022-11-16T07:22:39.112Z,25.92
2022-11-16T07:25:06.082Z,27.25
2022-11-16T07:27:32.510Z,26.23
2022-11-16T07:29:58.988Z,27.20
2022-11-16T07:32:25.441Z,26.65
2022-11-16T07:34:51.884Z,24.73
2022-11-16T07:37:18.295Z,27.05
2022-11-16T07:39:45.692Z,25.05
2022-11-16T07:42:12.270Z,26.63
2022-11-16T07:44:39.239Z,26.30
2022-11-16T07:47:07.033Z,24.35
2022-11-16T07:49:33.447Z,29.88
2022-11-16T07:51:59.932Z,28.90
2022-11-16T07:54:26.385Z,28.75
2022-11-16T07:56:52.860Z,25.77
2022-11-16T07:59:19.313Z,26.80
2022-11-16T08:01:49.029Z,26.63
2022-11-16T08:04:17.376Z,23.98
2022-11-16T08:06:44.488Z,23.00
2022-11-16T08:09:10.944Z,25.38
2022-11-16T08:11:37.989Z,26.52
2022-11-16T08:14:04.587Z,24.00
2022-11-16T08:16:33.171Z,22.88
2022-11-16T08:19:02.225Z,31.95
2022-11-16T08:21:28.788Z,26.10
2022-11-16T08:23:58.330Z,27.90
2022-11-16T08:26:25.285Z,26.20
2022-11-16T08:28:53.599Z,27.60
2022-11-16T08:31:22.457Z,27.88
2022-11-16T08:33:48.995Z,27.65
2022-11-16T08:36:18.646Z,24.60
2022-11-16T08:38:46.355Z,29.33
2022-11-16T08:41:13.442Z,26.80
2022-11-16T08:43:40.564Z,28.27
2022-11-16T08:46:08.339Z,29.83
2022-11-16T08:48:36.250Z,27.60
2022-11-16T08:51:20.903Z,27.35
2022-11-16T08:53:49.384Z,28.65
2022-11-16T08:56:17.797Z,31.23
2022-11-16T08:58:46.831Z,30.50
2022-11-16T09:01:19.002Z,32.08
2022-11-16T09:03:46.312Z,29.90
2022-11-16T09:06:13.694Z,30.75
2022-11-16T09:08:42.625Z,34.90
2022-11-16T09:11:18.663Z,30.50
2022-11-16T09:13:46.632Z,29.73
2022-11-16T09:16:16.463Z,32.40
2022-11-16T09:18:44.235Z,38.15
2022-11-16T09:21:10.700Z,33.65
2022-11-16T09:23:37.126Z,35.88
2022-11-16T09:26:05.457Z,32.35
2022-11-16T09:28:32.398Z,29.80
2022-11-16T09:31:04.306Z,34.40
2022-11-16T09:33:31.547Z,39.80
2022-11-16T09:36:07.157Z,30.88
2022-11-16T09:39:13.959Z,25.55
2022-11-16T09:42:16.499Z,24.48
2022-11-16T09:45:04.579Z,26.23
2022-11-16T09:47:40.572Z,27.52
2022-11-16T09:50:19.076Z,29.83
2022-11-16T09:52:51.054Z,22.08
2022-11-16T09:55:24.027Z,26.42
2022-11-16T09:57:55.550Z,24.70
2022-11-16T10:00:24.216Z,24.58
2022-11-16T10:03:06.822Z,22.52
2022-11-16T10:05:43.550Z,24.60
2022-11-16T10:08:17.299Z,30.25
2022-11-16T10:10:51.124Z,28.08
2022-11-16T10:13:17.494Z,24.55
2022-11-16T10:16:06.685Z,23.38
2022-11-16T10:18:58.980Z,28.17
2022-11-16T10:21:37.295Z,23.65
2022-11-16T10:24:32.059Z,23.38
2022-11-16T10:27:07.228Z,28.60
2022-11-16T10:29:36.670Z,30.23
2022-11-16T10:32:22.069Z,21.17
2022-11-16T10:35:09.107Z,21.83
2022-11-16T10:37:41.023Z,23.73
2022-11-16T10:40:29.202Z,24.58
2022-11-16T10:43:20.710Z,26.67
2022-11-16T10:46:15.463Z,20.00
2022-11-16T10:48:54.275Z,23.15
2022-11-16T10:51:20.713Z,31.08
2022-11-16T10:53:47.161Z,24.45
2022-11-16T10:56:13.728Z,25.58
2022-11-16T10:58:53.804Z,27.70
2022-11-16T11:01:49.922Z,24.33
2022-11-16T11:04:24.550Z,28.60
2022-11-16T11:06:53.412Z,27.55
2022-11-16T11:09:27.185Z,25.42
2022-11-16T11:12:32.615Z,26.48
2022-11-16T11:15:12.567Z,22.38
2022-11-16T11:17:45.311Z,22.08
2022-11-16T11:20:17.934Z,23.75
2022-11-16T11:23:00.360Z,25.00
2022-11-16T11:25:34.309Z,20.05
2022-11-16T11:28:21.496Z,25.98
2022-11-16T11:30:56.457Z,25.52
2022-11-16T11:33:24.404Z,23.65
2022-11-16T11:35:58.470Z,23.58
2022-11-16T11:38:25.759Z,19.45
2022-11-16T11:40:57.703Z,26.00
2022-11-16T11:43:25.478Z,26.73
2022-11-16T11:46:04.434Z,27.02
2022-11-16T11:48:37.846Z,21.67
2022-11-16T11:51:27.268Z,21.70
2022-11-16T11:53:56.220Z,23.95
2022-11-16T11:56:24.041Z,27.67
2022-11-16T11:58:51.880Z,26.67
2022-11-16T12:01:36.374Z,31.00
2022-11-16T12:04:28.197Z,35.17
2022-11-16T12:07:12.870Z,37.72
2022-11-16T12:10:03.555Z,35.85
2022-11-16T12:12:48.206Z,28.13
2022-11-16T12:15:39.570Z,29.20
2022-11-16T12:18:20.122Z,31.63
2022-11-16T12:21:15.737Z,31.80
2022-11-16T12:24:00.726Z,28.63
2022-11-16T12:27:05.598Z,31.05
2022-11-16T12:30:00.032Z,37.83
2022-11-16T12:33:00.200Z,30.60
2022-11-16T12:35:51.659Z,33.95
2022-11-16T12:38:27.839Z,27.40
2022-11-16T12:41:10.286Z,30.00
2022-11-16T12:43:59.457Z,27.13
2022-11-16T12:46:49.972Z,29.40
2022-11-16T12:49:31.715Z,30.65
2022-11-16T12:52:36.807Z,30.90
2022-11-16T12:55:52.064Z,28.08
2022-11-16T12:58:47.212Z,27.38
2022-11-16T13:01:35.366Z,27.48
2022-11-16T13:04:09.817Z,25.42
2022-11-16T13:06:50.119Z,24.95
2022-11-16T13:09:21.588Z,29.73
2022-11-16T13:14:23.002Z,25.67
2022-11-16T13:16:52.008Z,26.38
2022-11-16T13:19:18.777Z,29.85
2022-11-16T13:22:04.311Z,30.88
2022-11-16T13:24:53.656Z,26.85
2022-11-16T13:27:28.506Z,25.30
2022-11-16T13:30:13.729Z,29.23
2022-11-16T13:33:12.334Z,24.83
2022-11-16T13:35:39.453Z,29.02
2022-11-16T13:38:12.511Z,27.58
2022-11-16T13:40:40.025Z,25.45
2022-11-16T13:43:09.187Z,26.38
2022-11-16T13:45:49.777Z,24.55
2022-11-16T13:48:16.148Z,25.40
2022-11-16T13:50:49.928Z,24.95
2022-11-16T13:56:51.370Z,25.40
2022-11-16T13:59:26.256Z,30.40
2022-11-16T14:02:01.573Z,21.50
2022-11-16T14:04:49.643Z,25.50
2022-11-16T14:07:30.122Z,23.65
2022-11-16T14:09:56.698Z,24.80
2022-11-16T14:12:38.297Z,22.02
2022-11-16T14:15:16.832Z,24.67
2022-11-16T14:17:58.648Z,27.25
2022-11-16T14:20:52.938Z,18.02
2022-11-16T14:23:44.538Z,23.52
2022-11-16T14:29:10.260Z,19.27
2022-11-16T14:31:57.597Z,29.23
2022-11-16T14:34:46.114Z,23.83
2022-11-16T14:37:24.423Z,25.45
2022-11-16T14:39:53.389Z,29.15
2022-11-16T14:42:25.858Z,21.20
2022-11-16T14:45:01.505Z,26.77
2022-11-16T14:47:30.543Z,20.35
2022-11-16T14:49:57.605Z,18.52
2022-11-16T14:52:38.466Z,23.60
2022-11-16T14:55:08.148Z,22.75
2022-11-16T14:57:35.187Z,24.23
2022-11-16T15:00:17.391Z,18.42
2022-11-16T15:02:52.058Z,23.77
2022-11-16T15:05:27.117Z,23.45
2022-11-16T15:07:57.377Z,21.65
2022-11-16T15:10:27.666Z,24.60
2022-11-16T15:12:55.742Z,20.20
2022-11-16T15:15:28.645Z,32.63
2022-11-16T15:18:08.173Z,25.80
2022-11-16T15:20:37.743Z,19.38
2022-11-16T15:23:12.175Z,20.52
2022-11-16T15:25:38.565Z,22.38
2022-11-16T15:28:13.490Z,24.13
2022-11-16T15:30:40.460Z,21.67
2022-11-16T15:33:16.233Z,32.22
2022-11-16T15:35:42.743Z,53.70
2022-11-16T15:38:25.951Z,58.05
2022-11-16T15:40:54.916Z,86.53
2022-11-16T15:43:31.267Z,37.15
2022-11-16T15:45:59.609Z,34.13
2022-11-16T15:48:27.778Z,29.65
2022-11-16T15:51:06.125Z,21.92
2022-11-16T15:53:43.042Z,21.17
2022-11-16T15:56:26.675Z,23.42
2022-11-16T15:58:55.332Z,22.98
2022-11-16T16:01:22.938Z,21.17
2022-11-16T16:04:06.804Z,25.77
2022-11-16T16:06:50.055Z,34.95
2022-11-16T16:09:25.732Z,25.23
2022-11-16T16:11:53.625Z,23.67
2022-11-16T16:14:28.434Z,25.48
2022-11-16T16:16:58.140Z,23.73
2022-11-16T16:19:36.064Z,25.35
2022-11-16T16:22:06.056Z,35.22
2022-11-16T16:24:46.280Z,24.23
2022-11-16T16:27:21.924Z,26.65
2022-11-16T16:29:50.112Z,32.92
2022-11-16T16:32:29.949Z,21.90
2022-11-16T16:34:58.794Z,26.88
2022-11-16T16:37:33.436Z,23.45
2022-11-16T16:40:00.428Z,23.23
2022-11-16T16:42:26.946Z,21.52
2022-11-16T16:44:53.669Z,18.73
2022-11-16T16:47:20.806Z,24.30
2022-11-16T16:49:48.400Z,22.02
2022-11-16T16:52:14.879Z,20.05
2022-11-16T16:54:41.658Z,22.50
2022-11-16T16:57:15.851Z,17.65
2022-11-16T16:59:45.111Z,20.60
2022-11-16T17:02:12.355Z,20.30
2022-11-16T17:04:38.998Z,17.15
2022-11-16T17:07:05.605Z,18.83
2022-11-16T17:09:32.087Z,20.70
2022-11-16T17:11:58.534Z,18.00
2022-11-16T17:14:25.020Z,17.45
2022-11-16T17:16:52.145Z,19.13
2022-11-16T17:19:19.773Z,17.83
2022-11-16T17:21:46.328Z,20.77
2022-11-16T17:24:12.869Z,23.38
2022-11-16T17:26:41.033Z,18.45
2022-11-16T17:29:07.493Z,21.67
2022-11-16T17:31:34.015Z,18.98
2022-11-16T17:34:00.487Z,18.95
2022-11-16T17:36:26.928Z,21.20
2022-11-16T17:38:53.653Z,21.50
2022-11-16T17:41:22.181Z,22.63
2022-11-16T17:43:52.984Z,22.05
2022-11-16T17:46:21.339Z,19.38
2022-11-16T17:48:48.331Z,22.55
2022-11-16T17:51:19.953Z,21.92
2022-11-16T17:53:46.856Z,21.58
2022-11-16T17:56:15.355Z,19.00
2022-11-16T17:58:41.901Z,19.52
2022-11-16T18:01:08.670Z,21.25
2022-11-16T18:03:36.439Z,41.20
2022-11-16T18:06:05.940Z,40.00
2022-11-16T18:08:33.368Z,32.67
2022-11-16T18:11:06.965Z,21.45
2022-11-16T18:13:34.639Z,19.35
2022-11-16T18:16:03.677Z,17.30
2022-11-16T18:18:30.160Z,35.13
2022-11-16T18:20:56.616Z,40.53
2022-11-16T18:23:23.049Z,35.53
2022-11-16T18:25:49.450Z,36.25
2022-11-16T18:28:18.460Z,31.30
2022-11-16T18:30:44.988Z,40.10
2022-11-16T18:33:11.484Z,37.58
2022-11-16T18:35:37.964Z,30.58
2022-11-16T18:38:05.527Z,27.55
2022-11-16T18:40:31.930Z,24.52
2022-11-16T18:42:58.396Z,25.23
2022-11-16T18:45:24.879Z,25.50
2022-11-16T18:47:51.345Z,27.48
2022-11-16T18:50:22.627Z,26.52
2022-11-16T18:52:52.199Z,26.88
2022-11-16T18:55:18.615Z,26.65
2022-11-16T18:57:45.080Z,22.60
2022-11-16T19:00:12.370Z,27.05
2022-11-16T19:02:38.856Z,29.58
2022-11-16T19:05:06.035Z,27.20
2022-11-16T19:07:32.641Z,26.48
2022-11-16T19:09:59.459Z,19.80
2022-11-16T19:12:25.859Z,22.00
2022-11-16T19:14:52.258Z,19.50
2022-11-16T19:17:20.287Z,22.08
2022-11-16T19:19:46.731Z,23.00
2022-11-16T19:22:13.158Z,20.85
2022-11-16T19:24:39.616Z,20.85
2022-11-16T19:27:06.126Z,17.83
2022-11-16T19:29:32.536Z,19.27
2022-11-16T19:31:58.998Z,14.95
2022-11-16T19:34:30.395Z,19.35
2022-11-16T19:36:59.503Z,22.30
2022-11-16T19:39:26.654Z,24.75
2022-11-16T19:41:53.102Z,19.80
2022-11-16T19:44:20.000Z,27.05
2022-11-16T19:46:46.417Z,34.42
2022-11-16T19:49:19.609Z,41.13
2022-11-16T19:51:46.475Z,46.33
2022-11-16T19:54:14.817Z,35.72
2022-11-16T19:56:42.349Z,38.08
2022-11-16T19:59:08.979Z,34.80
2022-11-16T20:01:35.992Z,36.25
2022-11-16T20:04:03.584Z,45.63
2022-11-16T20:06:38.564Z,42.20
2022-11-16T20:09:09.522Z,30.60
2022-11-16T20:11:38.117Z,26.77
2022-11-16T20:14:07.291Z,30.65
2022-11-16T20:16:39.000Z,27.95
2022-11-16T20:19:07.456Z,25.05
2022-11-16T20:21:36.981Z,21.23
2022-11-16T20:24:07.114Z,23.25
2022-11-16T20:26:35.378Z,24.27
2022-11-16T20:29:02.140Z,23.40
2022-11-16T20:31:31.169Z,26.02
2022-11-16T20:34:02.601Z,24.23
2022-11-16T20:38:57.961Z,24.08
2022-11-16T20:41:26.717Z,23.48
2022-11-16T20:43:55.229Z,26.08
2022-11-16T20:46:23.517Z,32.65
2022-11-16T20:48:50.218Z,34.95
2022-11-16T20:51:18.825Z,34.78
2022-11-16T20:53:46.984Z,36.03
2022-11-16T20:56:14.066Z,31.27
2022-11-16T20:58:41.332Z,34.72
2022-11-16T21:01:13.505Z,38.88
2022-11-16T21:03:40.398Z,45.10
2022-11-16T21:06:09.702Z,45.40
2022-11-16T21:08:37.368Z,30.80
2022-11-16T21:11:26.027Z,38.90
2022-11-16T21:14:11.513Z,37.17
2022-11-16T21:16:38.694Z,37.53
2022-11-16T21:19:05.894Z,42.80
2022-11-16T21:21:32.487Z,43.72
2022-11-16T21:23:59.540Z,38.55
2022-11-16T21:26:31.070Z,34.95
2022-11-16T21:28:58.812Z,39.63
2022-11-16T21:31:30.818Z,39.05
2022-11-16T21:33:58.045Z,38.30
2022-11-16T21:36:26.285Z,41.55
2022-11-16T21:38:53.064Z,42.72
2022-11-16T21:41:21.109Z,38.35
2022-11-16T21:43:47.943Z,36.30
2022-11-16T21:46:17.266Z,40.90
2022-11-16T21:48:44.503Z,37.28
2022-11-16T21:51:13.405Z,44.47
2022-11-16T21:53:40.064Z,45.17
2022-11-16T21:56:08.181Z,39.38
2022-11-16T21:58:34.635Z,41.92
2022-11-16T22:01:02.415Z,43.17
2022-11-16T22:03:31.437Z,43.22
2022-11-16T22:06:18.823Z,38.55
2022-11-16T22:08:46.011Z,44.47
2022-11-16T22:11:13.682Z,36.78
2022-11-16T22:13:40.422Z,39.55
2022-11-16T22:16:12.400Z,40.72
2022-11-16T22:18:39.140Z,39.00
2022-11-16T22:21:06.194Z,41.53
2022-11-16T22:23:33.418Z,43.92
2022-11-16T22:26:05.850Z,35.33
2022-11-16T22:28:33.587Z,35.47
2022-11-16T22:31:01.943Z,34.83
2022-11-16T22:33:28.750Z,38.97
2022-11-16T22:35:55.468Z,34.28
2022-11-16T22:38:21.884Z,37.50
2022-11-16T22:40:50.531Z,32.15
2022-11-16T22:43:17.470Z,32.42
2022-11-16T22:45:43.879Z,31.05
2022-11-16T22:48:10.343Z,32.20
2022-11-16T22:50:36.781Z,31.08
2022-11-16T22:53:03.195Z,68.15
2022-11-16T22:55:29.644Z,58.88
2022-11-16T22:57:56.119Z,49.67
2022-11-16T23:00:23.705Z,40.70
2022-11-16T23:02:51.821Z,40.25
2022-11-16T23:05:18.275Z,30.70
2022-11-16T23:07:44.738Z,40.63
2022-11-16T23:10:11.172Z,96.72
2022-11-16T23:12:56.128Z,102.90
2022-11-16T23:15:40.785Z,110.97
2022-11-16T23:18:07.251Z,42.72
2022-11-16T23:20:52.847Z,25.42
2022-11-16T23:23:38.613Z,45.40
2022-11-16T23:26:30.419Z,28.77
2022-11-16T23:28:56.928Z,47.30
2022-11-16T23:31:23.508Z,31.00
2022-11-16T23:33:49.924Z,21.02
2022-11-16T23:36:16.404Z,22.55
2022-11-16T23:38:42.858Z,21.50
2022-11-16T23:41:28.197Z,18.40
2022-11-16T23:43:57.813Z,20.42
2022-11-16T23:46:28.619Z,20.58
2022-11-16T23:48:55.385Z,24.23
2022-11-16T23:51:23.340Z,24.45
2022-11-16T23:53:54.289Z,25.65
2022-11-16T23:56:21.666Z,31.08
2022-11-16T23:58:48.492Z,32.13
